Latest Weather Observations for Carnarvon

IDW60801

Issued at 9:33 am WST Monday 26 August 2019 (issued every 10 minutes, with the page automatically refreshed every 10 minutes)

About weather observations | Map of weather stations | Latest weather observations for WA | Other Formats
Station Details ID: 006011 Name: CARNARVON AIRPORT Lat: -24.89 Lon: 113.67 Height: 4.0 m
Data from the previous 72 hours. | See also: Recent months at Carnarvon
Date/Time
WST
Temp
°C
App
Temp
°C
Dew
Point
°C
Rel
Hum
%
Delta-T
°C
Wind Press
QNH
hPa
Press
MSL
hPa
Rain since
9am
mm
Dir  Spd
km/h
Gust
km/h
Spd
kts
Gust
kts
26/09:30am 20.0 14.1 7.4 44 6.4 SSE 28 37 15 20 1017.3 1017.3 0.0
26/09:00am 19.1 13.3 7.8 48 5.8 SSE 28 35 15 19 1017.3 1017.3 0.0
26/08:30am 18.1 12.2 7.5 50 5.4 SSE 28 39 15 21 1017.3 1017.3 0.0
26/08:00am 17.0 11.5 7.4 53 4.8 SSE 26 33 14 18 1017.1 1017.1 0.0
26/07:30am 16.2 11.1 7.7 57 4.3 SSE 24 32 13 17 1016.9 1016.9 0.0
26/07:00am 15.3 10.6 7.8 61 3.7 SSE 22 30 12 16 1016.6 1016.6 0.0
26/06:30am 15.6 10.1 7.6 59 4.0 SSE 26 33 14 18 1016.4 1016.4 0.0
26/06:00am 15.8 10.9 8.3 61 3.8 SSE 24 33 13 18 1016.3 1016.3 0.0
26/05:30am 15.6 11.0 9.7 68 3.1 SSE 24 30 13 16 1016.2 1016.2 0.0
26/05:00am 15.5 11.1 10.3 71 2.7 S 24 30 13 16 1016.0 1016.0 0.0
26/04:30am 15.6 11.6 10.6 72 2.6 S 22 30 12 16 1015.9 1015.9 0.0
26/04:00am 15.8 11.9 10.8 72 2.7 S 22 28 12 15 1015.9 1015.9 0.0
26/03:30am 16.0 11.7 10.7 71 2.8 S 24 32 13 17 1015.9 1015.9 0.0
26/03:00am 16.1 12.0 11.5 74 2.5 S 24 30 13 16 1016.0 1016.0 0.0
26/02:30am 16.5 12.2 11.9 74 2.5 S 26 33 14 18 1016.2 1016.2 0.0
26/02:00am 16.6 12.7 12.0 74 2.5 S 24 30 13 16 1016.4 1016.4 0.0
26/01:30am 16.7 12.9 12.5 76 2.3 S 24 32 13 17 1016.6 1016.6 0.0
26/01:00am 16.8 12.6 12.3 75 2.5 S 26 35 14 19 1016.8 1016.8 0.0
26/12:30am 17.0 12.5 12.7 76 2.4 S 28 35 15 19 1017.1 1017.1 0.0
26/12:00am 17.0 12.5 12.5 75 2.5 S 28 35 15 19 1017.3 1017.3 0.0
 
Date/Time
WST
Temp
°C
App
Temp
°C
Dew
Point
°C
Rel
Hum
%
Delta-T
°C
Wind Press
QNH
hPa
Press
MSL
hPa
Rain since
9am
mm
Dir  Spd
km/h
Gust
km/h
Spd
kts
Gust
kts
25/11:30pm 17.0 12.4 12.3 74 2.6 S 28 35 15 19 1017.6 1017.6 0.0
25/11:00pm 17.4 12.0 12.3 72 2.8 S 32 43 17 23 1017.8 1017.8 0.0
25/10:30pm 17.4 12.5 12.5 73 2.7 S 30 39 16 21 1018.0 1018.0 0.0
25/10:00pm 17.5 12.5 12.2 71 2.9 S 30 37 16 20 1018.1 1018.1 0.0
25/09:30pm 17.7 13.4 12.2 70 3.0 S 26 35 14 19 1018.2 1018.2 0.0
25/09:00pm 17.8 12.6 11.6 67 3.4 S 30 43 16 23 1018.3 1018.3 0.0
25/08:30pm 18.1 11.1 11.2 64 3.7 S 39 50 21 27 1018.2 1018.2 0.0
25/08:00pm 18.5 12.1 10.8 61 4.2 SSW 35 50 19 27 1018.0 1018.0 0.0
25/07:30pm 18.5 12.6 11.3 63 3.9 SSW 33 44 18 24 1017.8 1017.8 0.0
25/07:00pm 18.6 13.1 12.4 67 3.5 SSW 33 44 18 24 1017.6 1017.6 0.0
25/06:30pm 18.8 13.3 12.3 66 3.6 SSW 33 48 18 26 1017.4 1017.4 0.0
25/06:00pm 19.1 13.7 12.1 64 3.9 SSW 32 43 17 23 1017.2 1017.2 0.0
25/05:30pm 19.8 14.7 11.8 60 4.4 SSW 30 41 16 22 1016.8 1016.8 0.0
25/05:00pm 20.4 15.6 11.6 57 4.9 SSW 28 41 15 22 1016.7 1016.7 0.0
25/04:30pm 21.0 15.3 11.3 54 5.4 SSW 32 41 17 22 1016.5 1016.5 0.0
25/04:00pm 21.2 15.1 9.8 48 6.1 SSW 32 44 17 24 1016.4 1016.4 0.0
25/03:30pm 21.7 15.4 8.9 44 6.8 SSW 32 43 17 23 1016.4 1016.4 0.0
25/03:00pm 21.7 14.8 6.4 37 7.7 SSW 32 43 17 23 1016.4 1016.4 0.0
25/02:30pm 22.6 16.2 6.8 36 8.1 SSW 30 39 16 21 1016.5 1016.5 0.0
25/02:00pm 21.8 15.7 9.7 46 6.5 SSW 32 39 17 21 1016.8 1016.8 0.0
25/01:30pm 21.3 15.6 11.1 52 5.6 SSW 32 37 17 20 1017.2 1017.2 0.0
25/01:00pm 21.6 15.2 9.2 45 6.6 SSW 33 41 18 22 1017.6 1017.6 0.0
25/12:30pm 21.7 15.5 9.3 45 6.6 SSW 32 39 17 21 1018.1 1018.1 0.0
25/12:00pm 21.4 16.4 10.9 51 5.8 SSW 28 35 15 19 1018.5 1018.5 0.0
25/11:30am 20.0 14.9 13.2 65 3.9 SSW 32 37 17 20 1019.0 1019.0 0.0
25/11:00am 19.0 13.8 12.7 67 3.5 SSW 32 41 17 22 1019.2 1019.2 0.0
25/10:30am 19.0 14.0 13.4 70 3.2 SSW 32 39 17 21 1019.4 1019.4 0.0
25/10:00am 18.6 14.5 13.7 73 2.8 SSW 28 35 15 19 1019.5 1019.5 0.0
25/09:30am 18.1 13.5 13.6 75 2.6 SSW 30 35 16 19 1019.6 1019.6 0.0
25/09:00am 18.4 14.9 12.2 67 3.4 S 22 28 12 15 1019.5 1019.5 0.0
25/08:30am 17.6 15.1 12.3 71 2.9 S 17 26 9 14 1019.5 1019.5 0.0
25/08:00am 16.4 14.4 12.8 79 2.0 S 15 19 8 10 1019.3 1019.3 0.0
25/07:30am 15.3 13.1 12.2 82 1.7 S 15 20 8 11 1019.2 1019.2 0.0
25/07:00am 14.5 12.0 12.2 86 1.2 S 17 19 9 10 1019.0 1019.0 0.0
25/06:30am 14.8 12.4 12.5 86 1.3 S 17 20 9 11 1018.9 1018.9 0.0
25/06:00am 15.2 12.6 13.1 87 1.2 S 19 24 10 13 1018.7 1018.7 0.0
25/05:30am 15.2 12.6 13.1 87 1.2 S 19 24 10 13 1018.5 1018.5 0.0
25/05:00am 15.3 12.5 13.2 87 1.2 S 20 24 11 13 1018.4 1018.4 0.0
25/04:30am 15.2 12.3 12.9 86 1.3 S 20 26 11 14 1018.4 1018.4 0.0
25/04:00am 15.5 12.3 13.0 85 1.4 S 22 28 12 15 1018.4 1018.4 0.0
25/03:30am 15.5 11.8 12.8 84 1.5 S 24 30 13 16 1018.6 1018.6 0.0
25/03:00am 15.7 11.6 12.8 83 1.6 S 26 33 14 18 1018.7 1018.7 0.0
25/02:30am 15.6 11.9 12.7 83 1.6 S 24 30 13 16 1019.0 1019.0 0.0
25/02:00am 15.6 11.4 12.4 81 1.8 S 26 33 14 18 1019.4 1019.4 0.0
25/01:30am 15.5 11.7 12.3 81 1.7 S 24 30 13 16 1019.5 1019.5 0.0
25/01:00am 15.4 11.5 12.0 80 1.8 S 24 32 13 17 1019.7 1019.7 0.0
25/12:30am 15.6 11.6 11.8 78 2.1 S 24 33 13 18 1019.7 1019.7 0.0
25/12:00am 15.6 11.1 11.4 76 2.2 S 26 33 14 18 1019.7 1019.7 0.0
 
Date/Time
WST
Temp
°C
App
Temp
°C
Dew
Point
°C
Rel
Hum
%
Delta-T
°C
Wind Press
QNH
hPa
Press
MSL
hPa
Rain since
9am
mm
Dir  Spd
km/h
Gust
km/h
Spd
kts
Gust
kts
24/11:30pm 15.7 10.7 11.1 74 2.5 S 28 35 15 19 1019.9 1019.9 0.0
24/11:00pm 15.9 10.9 11.1 73 2.6 S 28 35 15 19 1020.0 1020.0 0.0
24/10:30pm 16.0 10.5 10.7 71 2.8 S 30 41 16 22 1020.2 1020.2 0.0
24/10:00pm 16.2 10.4 10.9 71 2.8 S 32 41 17 22 1020.5 1020.5 0.0
24/09:30pm 16.6 10.3 10.9 69 3.1 S 35 46 19 25 1020.5 1020.5 0.0
24/09:00pm 16.9 11.5 11.0 68 3.2 S 30 43 16 23 1020.5 1020.5 0.0
24/08:30pm 17.2 11.5 11.0 67 3.3 SSW 32 44 17 24 1020.5 1020.5 0.0
24/08:00pm 17.6 12.2 10.9 65 3.6 SSW 30 39 16 21 1020.4 1020.4 0.0
24/07:30pm 17.7 12.5 10.3 62 3.9 SSW 28 37 15 20 1020.3 1020.3 0.0
24/07:00pm 17.6 12.5 10.7 64 3.7 SSW 28 37 15 20 1020.0 1020.0 0.0
24/06:30pm 17.6 11.5 9.8 60 4.1 SSW 32 39 17 21 1019.7 1019.7 0.0
24/06:00pm 17.9 11.8 9.8 59 4.3 SSW 32 41 17 22 1019.5 1019.5 0.0
24/05:30pm 18.5 12.4 9.6 56 4.7 SSW 32 41 17 22 1019.2 1019.2 0.0
24/05:00pm 18.8 12.7 9.8 56 4.8 SSW 32 43 17 23 1019.0 1019.0 0.0
24/04:30pm 19.4 13.3 9.9 54 5.1 SSW 32 41 17 22 1019.0 1019.0 0.0
24/04:00pm 19.8 12.8 8.5 48 5.9 SSW 35 43 19 23 1019.0 1019.0 0.0
24/03:30pm 19.9 13.1 9.2 50 5.7 SSW 35 41 19 22 1019.0 1019.0 0.0
24/03:00pm 19.8 13.8 10.2 54 5.1 SSW 32 39 17 21 1019.1 1019.1 0.0
24/02:30pm 20.2 14.8 10.9 55 5.1 SSW 30 39 16 21 1019.5 1019.5 0.0
24/02:00pm 19.7 14.0 11.2 58 4.7 SSW 32 39 17 21 1019.8 1019.8 0.0
24/01:30pm 19.8 14.3 11.8 60 4.4 SSW 32 37 17 20 1020.1 1020.1 0.0
24/01:00pm 19.4 13.6 10.9 58 4.6 SSW 32 35 17 19 1020.4 1020.4 0.0
24/12:30pm 19.0 14.0 11.1 60 4.3 SSW 28 37 15 20 1020.8 1020.8 0.0
24/12:00pm 20.7 17.3 10.5 52 5.5 SSE 19 28 10 15 1021.4 1021.4 0.0
24/11:30am 20.1 15.6 6.1 40 7.0 SE 19 33 10 18 1021.9 1021.9 0.0
24/11:00am 19.5 15.1 6.6 43 6.5 SSE 19 28 10 15 1022.4 1022.4 0.0
24/10:30am 18.8 14.0 7.3 47 5.8 SE 22 28 12 15 1022.8 1022.8 0.0
24/10:00am 17.6 12.7 7.1 50 5.2 SE 22 30 12 16 1023.4 1023.4 0.0
24/09:30am 16.6 11.3 7.0 53 4.8 SE 24 32 13 17 1023.5 1023.5 0.0
24/09:00am 16.0 10.4 7.2 56 4.3 SSE 26 35 14 19 1023.5 1023.5 0.0
24/08:30am 15.0 9.4 7.1 59 3.9 SSE 26 35 14 19 1023.4 1023.4 0.0
24/08:00am 14.2 8.1 6.8 61 3.6 SSE 28 37 15 20 1023.3 1023.3 0.0
24/07:30am 13.3 7.7 7.1 66 3.0 SSE 26 35 14 19 1023.1 1023.1 0.0
24/07:00am 12.7 7.5 7.2 69 2.7 SSE 24 33 13 18 1022.8 1022.8 0.0
24/06:30am 12.7 7.2 7.4 70 2.6 SSE 26 35 14 19 1022.7 1022.7 0.0
24/06:00am 12.9 7.1 7.8 71 2.5 SSE 28 33 15 18 1022.6 1022.6 0.0
24/05:30am 13.1 7.2 7.5 69 2.7 SSE 28 35 15 19 1022.4 1022.4 0.0
24/05:00am 13.2 7.4 8.1 71 2.5 SSE 28 35 15 19 1022.3 1022.3 0.0
24/04:30am 13.5 8.3 8.8 73 2.4 SSE 26 32 14 17 1022.1 1022.1 0.0
24/04:00am 13.4 8.3 9.3 76 2.1 SSE 26 32 14 17 1022.0 1022.0 0.0
24/03:30am 13.6 8.9 9.3 75 2.2 SSE 24 33 13 18 1022.0 1022.0 0.0
24/03:00am 13.8 9.1 9.3 74 2.3 SSE 24 32 13 17 1022.1 1022.1 0.0
24/02:30am 13.8 9.4 9.0 73 2.4 SSE 22 28 12 15 1022.2 1022.2 0.0
24/02:00am 13.8 10.1 9.5 75 2.2 SSE 19 24 10 13 1022.2 1022.2 0.0
24/01:30am 14.3 10.5 9.9 75 2.3 SSE 20 24 11 13 1022.2 1022.2 0.0
24/01:00am 14.5 11.1 10.7 78 2.0 SSE 19 22 10 12 1022.4 1022.4 0.0
24/12:30am 14.3 11.6 10.3 77 2.1 SSE 15 17 8 9 1022.5 1022.5 0.0
24/12:00am 15.0 11.8 9.8 71 2.7 S 17 22 9 12 1022.3 1022.3 0.0
 
Date/Time
WST
Temp
°C
App
Temp
°C
Dew
Point
°C
Rel
Hum
%
Delta-T
°C
Wind Press
QNH
hPa
Press
MSL
hPa
Rain since
9am
mm
Dir  Spd
km/h
Gust
km/h
Spd
kts
Gust
kts
23/11:30pm 15.4 11.6 9.7 69 3.0 S 20 30 11 16 1022.4 1022.4 0.0
23/11:00pm 15.8 12.3 10.8 72 2.7 S 20 30 11 16 1022.6 1022.6 0.0
23/10:30pm 15.9 11.8 10.0 68 3.1 S 22 30 12 16 1022.6 1022.6 0.0
23/10:00pm 16.4 11.4 9.6 64 3.5 S 26 33 14 18 1022.6 1022.6 0.0
23/09:30pm 16.5 11.1 9.4 63 3.7 S 28 39 15 21 1022.7 1022.7 0.0
23/09:00pm 16.8 11.4 9.5 62 3.8 S 28 39 15 21 1022.6 1022.6 0.0
23/08:30pm 17.1 11.2 10.5 65 3.5 S 32 43 17 23 1022.3 1022.3 0.0
23/08:00pm 17.8 11.9 11.1 65 3.6 S 33 43 18 23 1022.1 1022.1 0.0
23/07:30pm 18.5 13.0 10.6 60 4.2 S 30 41 16 22 1021.6 1021.6 0.0
23/07:00pm 18.6 14.3 11.9 65 3.7 S 26 35 14 19 1021.3 1021.3 0.0
23/06:30pm 18.5 15.2 12.9 70 3.1 S 22 30 12 16 1021.2 1021.2 0.0
23/06:00pm 18.8 15.0 12.3 66 3.6 SSW 24 30 13 16 1021.1 1021.1 0.0
23/05:30pm 19.4 15.1 13.1 67 3.6 SSW 28 33 15 18 1020.7 1020.7 0.0
23/05:00pm 20.2 15.6 12.4 61 4.4 SSW 28 35 15 19 1020.5 1020.5 0.0
23/04:30pm 21.0 15.7 11.3 54 5.4 S 30 35 16 19 1020.3 1020.3 0.0
23/04:00pm 21.2 16.0 11.5 54 5.4 S 30 37 16 20 1020.4 1020.4 0.0
23/03:30pm 22.0 16.7 11.4 51 5.9 S 30 41 16 22 1020.4 1020.4 0.0
23/03:00pm 21.4 16.2 11.7 54 5.4 S 30 37 16 20 1020.3 1020.3 0.0
23/02:30pm 21.7 15.9 11.4 52 5.7 S 33 41 18 22 1020.4 1020.4 0.0
23/02:00pm 21.8 16.5 13.2 58 4.9 S 33 43 18 23 1020.5 1020.5 0.0
23/01:30pm 21.4 15.9 12.0 55 5.3 S 32 39 17 21 1020.5 1020.5 0.0
23/01:00pm 21.1 15.7 12.8 59 4.7 S 33 46 18 25 1020.7 1020.7 0.0
23/12:30pm 20.5 14.4 13.0 62 4.3 S 37 46 20 25 1021.0 1021.0 0.0
23/12:00pm 20.2 14.3 13.6 66 3.8 S 37 46 20 25 1021.2 1021.2 0.0
23/11:30am 19.7 14.4 14.1 70 3.2 S 35 48 19 26 1021.4 1021.4 0.0
23/11:00am 20.0 16.2 15.8 77 2.5 SSE 30 39 16 21 1021.7 1021.7 0.0
23/10:30am 18.9 14.8 16.0 83 1.7 S 32 43 17 23 1021.9 1021.9 0.0
23/10:00am 19.1 15.1 16.1 83 1.8 S 32 41 17 22 1022.0 1022.0 0.0

Other formats

Comma delimited format used in spreadsheet applications
http://www.bom.gov.au/fwo/IDW60801/IDW60801.94300.axf

JavaScript Object Notation format (JSON) in row-major order
http://www.bom.gov.au/fwo/IDW60801/IDW60801.94300.json

Data quality

Most of these data are generated automatically and are frequently updated. Quality checks on data are not normally performed. It is possible for incorrect values to appear. Refer to information at About Latest Weather Observations and please check the disclaimer before using these data.